Time;durP1;ratioP1;P1;durP2;ratioP2;P2;SDS_P1;SDS_P2;PMS_P1;PMS_P2;Temp;Humidity;BMP_temperature;BMP_pressure;BME280_temperature;BME280_humidity;BME280_pressure;Samples;Min_cycle;Max_cycle;Signal;HPM_P1;HPM_P2
2020/12/29 00:04:55;;;;;;;21.88;15.98;;;;;;;2.73;98.52;97917.38;4925571;23;20133;-65
2020/12/29 00:07:21;;;;;;;24.40;16.95;;;;;;;2.67;97.95;97919.84;4971403;28;20062;-64
2020/12/29 00:09:47;;;;;;;25.15;16.98;;;;;;;2.71;98.50;97923.84;4977301;28;20051;-63
2020/12/29 00:12:13;;;;;;;27.42;17.10;;;;;;;2.71;97.67;97923.84;4976214;28;20114;-64
2020/12/29 00:14:39;;;;;;;25.30;17.80;;;;;;;2.71;97.99;97929.16;4983110;28;20062;-64
2020/12/29 00:17:05;;;;;;;24.05;16.67;;;;;;;2.70;98.42;97932.81;4981775;28;20446;-64
2020/12/29 00:19:31;;;;;;;29.02;18.15;;;;;;;2.69;97.78;97931.97;4980601;28;20058;-63
2020/12/29 00:21:58;;;;;;;26.38;16.98;;;;;;;2.71;98.64;97935.31;4978847;28;20097;-64
2020/12/29 00:24:25;;;;;;;24.92;16.27;;;;;;;2.63;98.30;97940.56;4972615;28;20058;-63
2020/12/29 00:26:51;;;;;;;24.23;17.13;;;;;;;2.70;98.20;97938.13;4981231;28;20724;-63
2020/12/29 00:29:17;;;;;;;23.50;16.00;;;;;;;2.75;97.95;97941.97;4980759;28;20054;-63
2020/12/29 00:31:43;;;;;;;24.98;17.35;;;;;;;2.70;98.05;97946.91;4982523;28;20396;-63
2020/12/29 00:34:09;;;;;;;23.08;16.67;;;;;;;2.81;98.11;97945.81;4980356;28;20077;-63
2020/12/29 00:36:35;;;;;;;26.27;17.33;;;;;;;2.79;97.96;97943.31;4982107;28;20062;-63
2020/12/29 00:39:01;;;;;;;21.45;15.93;;;;;;;2.80;97.75;97944.97;4982053;28;20466;-63
2020/12/29 00:41:28;;;;;;;24.10;15.88;;;;;;;2.81;98.15;97945.81;4981123;28;20046;-63
2020/12/29 00:43:54;;;;;;;24.40;16.58;;;;;;;2.73;97.61;97935.97;4980248;28;20138;-64
2020/12/29 00:46:22;;;;;;;24.85;17.33;;;;;;;2.73;97.72;97943.94;4980512;28;20496;-63
2020/12/29 00:48:48;;;;;;;27.15;17.27;;;;;;;2.72;97.90;97933.47;4981568;28;20179;-63
2020/12/29 00:51:17;;;;;;;26.90;16.92;;;;;;;2.77;98.04;97932.03;4979945;28;20517;-63
2020/12/29 00:53:43;;;;;;;26.42;18.45;;;;;;;2.86;98.15;97937.38;4980164;28;20097;-63
2020/12/29 00:56:10;;;;;;;26.33;17.55;;;;;;;2.82;98.52;97941.34;4980138;28;20411;-63
2020/12/29 00:58:37;;;;;;;27.77;17.65;;;;;;;2.79;98.42;97943.31;4981677;28;20058;-63
2020/12/29 01:01:04;;;;;;;31.52;20.13;;;;;;;2.78;98.21;97944.31;4980969;28;20082;-63
2020/12/29 01:03:30;;;;;;;32.97;20.17;;;;;;;2.73;98.03;97946.59;4981234;28;20069;-63
2020/12/29 01:05:56;;;;;;;34.95;20.17;;;;;;;2.69;98.11;97947.06;4980074;28;20079;-63
2020/12/29 01:08:22;;;;;;;32.03;20.10;;;;;;;2.72;98.35;97946.75;4979253;28;20070;-64
2020/12/29 01:10:51;;;;;;;29.42;18.83;;;;;;;2.70;98.02;97954.88;4980916;28;20506;-63
2020/12/29 01:13:17;;;;;;;28.60;18.60;;;;;;;2.76;97.99;97959.56;4979528;28;20138;-63
2020/12/29 01:15:44;;;;;;;26.35;16.75;;;;;;;2.75;98.00;97955.25;4979442;28;20138;-63
2020/12/29 01:18:10;;;;;;;28.17;18.23;;;;;;;2.69;98.05;97957.69;4979211;28;20057;-63
2020/12/29 01:20:36;;;;;;;29.33;18.00;;;;;;;2.76;98.42;97964.06;4981833;28;20050;-63
2020/12/29 01:23:02;;;;;;;28.25;17.45;;;;;;;2.75;98.88;97967.69;4979723;28;20141;-64
2020/12/29 01:25:28;;;;;;;29.63;17.75;;;;;;;2.84;98.08;97969.38;4980900;28;20059;-63
2020/12/29 01:27:54;;;;;;;31.55;18.67;;;;;;;2.88;98.01;97973.41;4980153;28;20055;-63
2020/12/29 01:30:21;;;;;;;27.50;18.02;;;;;;;2.82;98.34;97968.72;4979800;28;20055;-63
2020/12/29 01:32:47;;;;;;;29.75;17.98;;;;;;;2.77;98.18;97971.03;4981159;28;20118;-63
2020/12/29 01:35:13;;;;;;;30.98;18.65;;;;;;;2.75;98.36;97973.00;4979876;28;20057;-63
2020/12/29 01:37:42;;;;;;;32.75;19.73;;;;;;;2.86;97.87;97977.22;4979990;28;20071;-63
2020/12/29 01:40:08;;;;;;;29.35;17.85;;;;;;;2.78;97.94;97970.88;4979562;28;20046;-64
2020/12/29 01:42:34;;;;;;;27.50;16.63;;;;;;;2.78;98.17;97967.38;4977698;28;20050;-63
2020/12/29 01:45:00;;;;;;;32.55;17.75;;;;;;;2.75;98.16;97973.84;4976787;28;20145;-63
2020/12/29 01:47:26;;;;;;;26.13;16.90;;;;;;;2.73;98.41;97973.16;4977647;28;20054;-63
2020/12/29 01:49:53;;;;;;;33.70;18.73;;;;;;;2.65;98.17;97973.13;4977803;28;20108;-63
2020/12/29 01:52:19;;;;;;;29.52;18.08;;;;;;;2.74;98.24;97966.88;4976300;28;20046;-63
2020/12/29 01:54:46;;;;;;;33.88;18.45;;;;;;;2.77;98.14;97974.50;4975815;28;20058;-63
2020/12/29 01:57:12;;;;;;;34.92;19.05;;;;;;;2.77;97.97;97966.53;4977801;28;20586;-64
2020/12/29 01:59:38;;;;;;;28.80;18.10;;;;;;;2.82;98.50;97973.22;4976846;28;20483;-63
2020/12/29 02:02:05;;;;;;;30.95;18.52;;;;;;;2.85;98.56;97972.91;4977829;28;20448;-64
2020/12/29 02:04:31;;;;;;;29.45;18.35;;;;;;;2.87;98.06;97976.22;4977526;28;20066;-63
2020/12/29 02:06:58;;;;;;;27.13;17.15;;;;;;;2.89;97.96;97974.25;4977894;28;20897;-63
2020/12/29 02:09:25;;;;;;;27.50;17.48;;;;;;;2.82;97.96;97979.34;4963254;28;20066;-64
2020/12/29 02:11:51;;;;;;;28.48;17.75;;;;;;;2.91;98.46;97977.56;4978217;28;20516;-65
2020/12/29 02:14:17;;;;;;;30.55;19.13;;;;;;;2.83;97.65;97981.03;4977249;28;20070;-64
2020/12/29 02:16:44;;;;;;;30.40;18.50;;;;;;;2.77;98.32;97979.81;4979154;28;20081;-63
2020/12/29 02:19:10;;;;;;;29.70;19.25;;;;;;;2.86;97.88;97983.38;4979314;28;20066;-63
2020/12/29 02:21:38;;;;;;;26.98;17.10;;;;;;;2.82;98.44;97983.84;4981011;28;20054;-65
2020/12/29 02:24:06;;;;;;;31.52;18.83;;;;;;;2.90;97.93;97983.88;4977749;28;20483;-64
2020/12/29 02:26:33;;;;;;;28.63;18.05;;;;;;;2.78;97.92;97978.00;4979863;28;20078;-64
2020/12/29 02:29:00;;;;;;;29.33;18.98;;;;;;;2.78;97.74;97980.66;4979784;28;20066;-64
2020/12/29 02:31:27;;;;;;;31.23;18.48;;;;;;;2.79;97.78;97988.47;4978836;28;20545;-64
2020/12/29 02:33:53;;;;;;;28.95;18.20;;;;;;;2.89;98.40;97990.19;4977700;28;20057;-63
2020/12/29 02:36:19;;;;;;;32.63;18.80;;;;;;;2.78;97.65;97989.47;4979070;28;20104;-65
2020/12/29 02:38:45;;;;;;;32.50;20.02;;;;;;;2.85;98.18;97994.97;4977605;28;20500;-65
2020/12/29 02:41:13;;;;;;;31.05;18.88;;;;;;;2.82;98.42;97994.47;4978722;28;20053;-64
2020/12/29 02:43:39;;;;;;;32.60;18.67;;;;;;;2.86;98.52;97996.66;4977377;28;20046;-65
2020/12/29 02:46:05;;;;;;;30.92;19.30;;;;;;;2.78;98.00;98000.09;4978770;28;20669;-65
2020/12/29 02:48:31;;;;;;;34.80;20.23;;;;;;;2.70;98.23;97996.56;4979466;28;20490;-64
2020/12/29 02:50:57;;;;;;;32.78;20.20;;;;;;;2.78;98.52;98000.09;4978489;28;20059;-64
2020/12/29 02:53:23;;;;;;;32.90;19.42;;;;;;;2.75;98.17;98000.41;4977945;28;20175;-64
2020/12/29 02:55:49;;;;;;;34.88;20.23;;;;;;;2.73;98.25;98002.38;4975757;28;20133;-65
2020/12/29 02:58:16;;;;;;;33.97;19.83;;;;;;;2.69;98.07;98005.50;4978721;28;20071;-65
2020/12/29 03:00:42;;;;;;;32.47;19.00;;;;;;;2.67;98.26;98016.28;4977524;28;20423;-63
2020/12/29 03:03:08;;;;;;;32.63;20.23;;;;;;;2.57;99.12;98011.06;4976831;28;20050;-63
2020/12/29 03:05:34;;;;;;;37.25;21.50;;;;;;;2.70;98.78;98026.59;4980062;28;20057;-64
2020/12/29 03:08:00;;;;;;;38.65;21.75;;;;;;;2.74;98.39;98025.28;4977974;28;20046;-65
2020/12/29 03:10:26;;;;;;;34.30;19.23;;;;;;;2.67;98.53;98021.59;4977330;28;20109;-64
2020/12/29 03:12:51;;;;;;;35.45;19.83;;;;;;;2.70;98.89;98021.28;4979639;28;20059;-64
2020/12/29 03:15:18;;;;;;;34.75;20.83;;;;;;;2.68;99.09;98020.63;4978783;28;20057;-63
2020/12/29 03:17:44;;;;;;;33.83;20.20;;;;;;;2.79;98.74;98028.31;4979301;28;20058;-63
2020/12/29 03:20:10;;;;;;;32.13;19.67;;;;;;;2.91;99.27;98025.38;4976251;28;20104;-63
2020/12/29 03:22:36;;;;;;;30.95;18.85;;;;;;;2.93;98.79;98034.88;4978262;28;20050;-63
2020/12/29 03:25:03;;;;;;;31.85;18.88;;;;;;;2.93;99.10;98034.88;4976051;28;20077;-63
2020/12/29 03:27:29;;;;;;;35.00;20.52;;;;;;;2.95;98.94;98038.19;4978451;28;20062;-63
2020/12/29 03:29:55;;;;;;;31.13;18.90;;;;;;;2.79;98.61;98038.94;4977039;28;20055;-63
2020/12/29 03:32:21;;;;;;;33.83;19.75;;;;;;;2.89;98.27;98036.19;4978153;28;20054;-65
2020/12/29 03:34:47;;;;;;;33.40;19.98;;;;;;;2.98;98.70;98042.38;4977796;28;20058;-63
2020/12/29 03:37:13;;;;;;;30.60;19.35;;;;;;;3.02;98.72;98038.41;4977628;28;20070;-63
2020/12/29 03:39:40;;;;;;;32.75;19.92;;;;;;;2.99;98.13;98049.38;4979614;28;20522;-64
2020/12/29 03:42:06;;;;;;;32.30;18.27;;;;;;;2.99;98.54;98057.34;4976728;28;20560;-64
2020/12/29 03:44:33;;;;;;;33.45;20.67;;;;;;;2.88;98.06;98061.06;4975622;28;20059;-64
2020/12/29 03:46:59;;;;;;;37.20;20.08;;;;;;;2.97;98.34;98064.59;4977660;28;20510;-64
2020/12/29 03:49:26;;;;;;;30.83;19.38;;;;;;;3.00;98.79;98066.94;4980431;28;20050;-64
2020/12/29 03:51:52;;;;;;;31.98;18.75;;;;;;;3.07;98.00;98065.34;4982587;28;20054;-65
2020/12/29 03:54:18;;;;;;;31.17;19.48;;;;;;;3.08;98.44;98063.53;4981118;28;20062;-64
2020/12/29 03:56:44;;;;;;;31.75;18.90;;;;;;;2.98;98.23;98071.59;4981722;28;20059;-65
2020/12/29 03:59:10;;;;;;;31.70;18.85;;;;;;;3.03;98.16;98068.47;4978070;28;20063;-64
2020/12/29 04:01:36;;;;;;;29.45;18.90;;;;;;;2.99;97.83;98073.28;4980213;28;20073;-65
2020/12/29 04:04:02;;;;;;;34.67;19.90;;;;;;;3.05;98.44;98080.63;4980281;28;20059;-64
2020/12/29 04:06:28;;;;;;;35.35;20.55;;;;;;;2.95;97.99;98087.84;4980144;28;20090;-64
2020/12/29 04:08:54;;;;;;;35.15;20.27;;;;;;;3.04;97.81;98094.06;4980535;28;20105;-65
2020/12/29 04:11:20;;;;;;;31.77;19.45;;;;;;;3.05;98.45;98085.94;4979880;28;20039;-65
2020/12/29 04:13:46;;;;;;;34.47;19.92;;;;;;;3.02;97.84;98096.03;4972141;28;20479;-64
2020/12/29 04:16:12;;;;;;;35.70;20.45;;;;;;;3.08;97.72;98087.44;4980476;28;20051;-65
2020/12/29 04:18:39;;;;;;;34.20;19.73;;;;;;;3.11;97.72;98093.25;4982850;28;20479;-64
2020/12/29 04:21:05;;;;;;;33.28;19.45;;;;;;;2.99;97.62;98102.50;4978304;28;20043;-63
2020/12/29 04:23:32;;;;;;;35.45;20.80;;;;;;;3.02;98.24;98098.69;4978591;28;20097;-63
2020/12/29 04:25:58;;;;;;;36.08;21.08;;;;;;;3.06;98.14;98092.91;4980214;28;20499;-63
2020/12/29 04:28:24;;;;;;;34.90;20.27;;;;;;;3.07;97.82;98091.91;4980654;28;20384;-64
2020/12/29 04:30:50;;;;;;;39.42;21.13;;;;;;;2.90;97.91;98100.75;4982181;28;20698;-65
2020/12/29 04:33:17;;;;;;;38.15;21.80;;;;;;;2.95;98.69;98101.13;4980586;28;20105;-64
2020/12/29 04:35:43;;;;;;;41.67;20.90;;;;;;;3.06;98.04;98108.88;4978492;28;20070;-64
2020/12/29 04:38:09;;;;;;;38.35;21.42;;;;;;;3.00;98.52;98108.63;4977855;28;20055;-64
2020/12/29 04:40:36;;;;;;;40.13;21.98;;;;;;;3.03;98.27;98109.16;4981616;28;20503;-63
2020/12/29 04:43:02;;;;;;;40.88;22.45;;;;;;;3.08;98.47;98112.19;4979896;28;20051;-63
2020/12/29 04:45:28;;;;;;;42.25;23.73;;;;;;;3.00;98.46;98106.81;4981350;28;20109;-65
2020/12/29 04:47:54;;;;;;;43.08;23.15;;;;;;;3.07;98.72;98115.81;4980194;28;20054;-64
2020/12/29 04:50:20;;;;;;;40.05;22.38;;;;;;;3.13;98.61;98120.50;4979899;28;20069;-62
2020/12/29 04:52:51;;;;;;;37.67;21.88;;;;;;;3.17;98.21;98120.22;4980481;28;20042;-64
2020/12/29 04:55:27;;;;;;;35.47;20.63;;;;;;;3.14;98.44;98121.38;4980013;28;20074;-63
2020/12/29 04:57:54;;;;;;;40.65;22.30;;;;;;;3.12;97.86;98126.84;4978925;28;20101;-64
2020/12/29 05:00:20;;;;;;;32.28;20.25;;;;;;;3.18;98.65;98121.88;4980465;28;20051;-64
2020/12/29 05:02:46;;;;;;;35.50;19.63;;;;;;;3.21;98.21;98122.41;4979094;28;20054;-64
2020/12/29 05:05:12;;;;;;;32.22;20.42;;;;;;;3.21;98.20;98130.38;4980755;28;20106;-64
2020/12/29 05:07:38;;;;;;;37.17;21.98;;;;;;;3.14;98.59;98126.69;4977369;28;20086;-64
2020/12/29 05:10:05;;;;;;;38.78;21.60;;;;;;;3.17;98.40;98137.00;4979500;28;20047;-64
2020/12/29 05:12:31;;;;;;;34.95;20.33;;;;;;;3.19;98.15;98139.50;4980062;28;20050;-64
2020/12/29 05:14:58;;;;;;;33.17;19.80;;;;;;;3.18;98.38;98133.34;4979026;28;20053;-64
2020/12/29 05:17:24;;;;;;;36.38;21.88;;;;;;;3.19;98.06;98144.81;4978127;28;20165;-63
2020/12/29 05:19:50;;;;;;;35.70;21.33;;;;;;;3.13;98.08;98147.09;4980788;28;20492;-63
2020/12/29 05:22:19;;;;;;;38.00;21.33;;;;;;;3.21;98.28;98143.66;4977873;28;20057;-63
2020/12/29 05:24:46;;;;;;;33.42;20.08;;;;;;;3.22;98.03;98152.47;4978249;28;20050;-63
2020/12/29 05:27:13;;;;;;;38.28;20.55;;;;;;;3.27;98.19;98152.84;4978669;28;20046;-63
2020/12/29 05:29:40;;;;;;;32.72;20.98;;;;;;;3.27;98.08;98159.00;4979216;28;20050;-64
2020/12/29 05:32:07;;;;;;;36.58;20.65;;;;;;;3.22;98.25;98147.16;4978330;28;20049;-64
2020/12/29 05:34:32;;;;;;;34.45;21.13;;;;;;;3.18;98.51;98153.75;4978011;28;20057;-63
2020/12/29 05:36:59;;;;;;;33.95;20.63;;;;;;;3.30;98.61;98157.84;4979273;28;20058;-65
2020/12/29 05:39:28;;;;;;;36.85;20.80;;;;;;;3.30;98.03;98168.47;4980568;28;20050;-64
2020/12/29 05:41:56;;;;;;;35.20;19.75;;;;;;;3.29;98.04;98158.84;4977327;28;20065;-65
2020/12/29 05:44:26;;;;;;;32.55;18.90;;;;;;;3.29;98.44;98162.31;4977049;28;20058;-65
2020/12/29 05:46:53;;;;;;;36.15;20.08;;;;;;;3.29;97.97;98161.50;4978157;28;20055;-64
2020/12/29 05:49:20;;;;;;;35.03;19.60;;;;;;;3.30;98.29;98163.16;4978855;28;20054;-63
2020/12/29 05:51:47;;;;;;;31.40;20.17;;;;;;;3.23;98.29;98162.94;4979275;28;20051;-64
2020/12/29 05:54:15;;;;;;;32.72;20.27;;;;;;;3.24;97.83;98174.41;4976772;28;20053;-64
2020/12/29 05:56:41;;;;;;;35.35;21.77;;;;;;;3.10;98.29;98171.31;4979672;28;20062;-64
2020/12/29 05:59:07;;;;;;;30.80;19.35;;;;;;;3.07;97.90;98182.25;4977083;28;20523;-65
2020/12/29 06:01:42;;;;;;;33.53;21.38;;;;;;;3.19;97.91;98176.69;4979881;28;20128;-64
2020/12/29 06:04:08;;;;;;;35.30;20.42;;;;;;;3.21;97.94;98185.34;4975427;28;20443;-64
2020/12/29 06:06:36;;;;;;;30.73;20.13;;;;;;;3.17;98.37;98184.00;4976112;28;20101;-63
2020/12/29 06:11:40;;;;;;;35.13;20.38;;;;;;;3.12;98.39;98187.97;4999482;23;20051;-64
2020/12/29 06:14:13;;;;;;;38.10;22.48;;;;;;;3.10;98.27;98195.22;4980835;28;20065;-64
2020/12/29 06:16:42;;;;;;;32.97;20.92;;;;;;;3.07;98.38;98200.88;4984627;28;20050;-63
2020/12/29 06:19:18;;;;;;;38.05;22.05;;;;;;;3.15;98.36;98198.28;4981486;28;20050;-64
2020/12/29 06:21:52;;;;;;;34.88;21.63;;;;;;;3.20;98.29;98200.47;4983768;28;20043;-63
2020/12/29 06:24:20;;;;;;;35.55;22.10;;;;;;;3.08;98.75;98201.72;4981299;28;20428;-63
2020/12/29 06:26:49;;;;;;;39.38;21.20;;;;;;;3.09;98.70;98206.88;4981600;28;20479;-63
2020/12/29 06:29:20;;;;;;;38.55;23.63;;;;;;;3.14;98.36;98206.41;4981273;28;20533;-63
2020/12/29 06:31:46;;;;;;;38.40;21.73;;;;;;;3.12;98.89;98216.34;4982366;28;20046;-63
2020/12/29 06:34:17;;;;;;;41.15;23.67;;;;;;;3.00;98.30;98215.75;4980659;28;20062;-63
2020/12/29 06:36:43;;;;;;;41.08;23.20;;;;;;;2.96;98.34;98222.38;4980400;28;20051;-63
2020/12/29 06:39:13;;;;;;;46.78;25.17;;;;;;;2.95;99.03;98224.19;4981881;28;20043;-65
2020/12/29 06:41:40;;;;;;;49.97;24.15;;;;;;;3.08;98.94;98233.59;4981822;28;20050;-65
2020/12/29 06:44:06;;;;;;;45.63;24.83;;;;;;;2.95;98.46;98233.97;4982272;28;20054;-65
2020/12/29 06:46:32;;;;;;;43.90;24.23;;;;;;;3.00;98.65;98231.69;4981477;28;20066;-64
2020/12/29 06:49:17;;;;;;;42.53;23.60;;;;;;;2.99;98.90;98240.66;4982383;28;20050;-65
2020/12/29 06:51:43;;;;;;;43.70;23.40;;;;;;;3.01;99.24;98238.69;4981098;28;20073;-64
2020/12/29 06:54:10;;;;;;;39.72;23.55;;;;;;;3.08;98.86;98244.22;4980664;28;20105;-64
2020/12/29 06:56:56;;;;;;;42.28;24.75;;;;;;;3.07;98.92;98243.38;4980575;28;20069;-64
2020/12/29 06:59:22;;;;;;;52.63;24.40;;;;;;;3.00;99.34;98249.47;4982064;28;20047;-64
2020/12/29 07:01:49;;;;;;;49.40;24.15;;;;;;;3.10;99.00;98248.38;4980949;28;20400;-65
2020/12/29 07:04:15;;;;;;;46.63;23.40;;;;;;;3.00;99.18;98252.94;4980638;28;20047;-64
2020/12/29 07:06:41;;;;;;;49.03;24.55;;;;;;;3.03;98.68;98257.13;4979274;28;20054;-65
2020/12/29 07:09:26;;;;;;;47.67;24.55;;;;;;;3.04;99.05;98272.09;4981883;28;20058;-64
2020/12/29 07:12:06;;;;;;;52.00;23.45;;;;;;;2.98;99.67;98260.25;4982233;28;20057;-64
2020/12/29 07:14:33;;;;;;;45.38;23.83;;;;;;;3.07;99.10;98269.97;4980917;28;20042;-63
2020/12/29 07:17:00;;;;;;;58.03;25.38;;;;;;;2.97;99.59;98263.88;4979849;28;20097;-64
2020/12/29 07:19:27;;;;;;;54.33;25.92;;;;;;;2.91;99.71;98275.13;4981280;28;20054;-63
2020/12/29 07:21:54;;;;;;;55.88;26.77;;;;;;;2.95;99.74;98273.84;4980897;28;20407;-65
2020/12/29 07:24:20;;;;;;;57.47;26.25;;;;;;;2.97;99.79;98280.69;4981297;28;20054;-65
2020/12/29 07:26:47;;;;;;;56.40;25.40;;;;;;;2.93;99.87;98281.09;4981204;28;20043;-64
2020/12/29 07:29:13;;;;;;;57.85;26.55;;;;;;;2.94;99.77;98293.41;4980456;28;20076;-65
2020/12/29 07:31:41;;;;;;;64.40;27.88;;;;;;;2.95;99.39;98295.91;4982328;28;20137;-64
2020/12/29 07:34:11;;;;;;;63.00;27.52;;;;;;;3.03;99.99;98304.97;4979317;28;20058;-64
2020/12/29 07:36:42;;;;;;;58.10;25.35;;;;;;;2.88;99.73;98308.13;4981534;28;20059;-64
2020/12/29 07:39:11;;;;;;;59.65;26.42;;;;;;;2.83;100.00;98309.56;4978269;28;20078;-63
2020/12/29 07:41:37;;;;;;;;;;;;;;;2.84;99.72;98311.25;4979536;28;20046;-65
2020/12/29 07:44:04;;;;;;;64.63;28.25;;;;;;;2.86;99.84;98315.44;4979014;28;19922;-63
2020/12/29 07:46:31;;;;;;;60.60;28.48;;;;;;;2.86;99.97;98322.56;4979985;28;20105;-65
2020/12/29 07:48:58;;;;;;;66.82;29.63;;;;;;;2.86;100.00;98325.22;4979596;28;20065;-64
2020/12/29 07:51:24;;;;;;;68.95;31.88;;;;;;;2.77;100.00;98327.78;4978433;28;20076;-64
2020/12/29 07:53:50;;;;;;;64.07;30.25;;;;;;;2.82;100.00;98340.59;4976224;28;20043;-64
2020/12/29 07:56:15;;;;;;;77.80;32.03;;;;;;;2.82;100.00;98335.28;4969828;28;20050;-63
2020/12/29 07:58:41;;;;;;;64.45;29.63;;;;;;;2.86;100.00;98335.84;4979772;28;20050;-63
2020/12/29 08:01:09;;;;;;;67.25;31.10;;;;;;;2.89;100.00;98347.00;4978978;28;20509;-63
2020/12/29 08:03:34;;;;;;;62.65;31.13;;;;;;;2.92;100.00;98352.00;4978311;28;20121;-63
2020/12/29 08:06:00;;;;;;;67.55;31.55;;;;;;;2.89;100.00;98359.47;4978782;28;20451;-63
2020/12/29 08:08:26;;;;;;;67.05;32.22;;;;;;;2.89;100.00;98362.13;4978856;28;20488;-63
2020/12/29 08:10:52;;;;;;;69.78;32.30;;;;;;;2.91;100.00;98368.94;4980466;28;20348;-63
2020/12/29 08:13:20;;;;;;;70.40;30.10;;;;;;;2.86;100.00;98367.72;4979235;28;20054;-63
2020/12/29 08:15:47;;;;;;;61.78;30.25;;;;;;;2.88;100.00;98376.38;4979689;28;20901;-63
2020/12/29 08:18:15;;;;;;;64.57;30.83;;;;;;;2.93;100.00;98387.38;4978262;28;20047;-63
2020/12/29 08:20:44;;;;;;;68.60;31.45;;;;;;;2.94;100.00;98381.09;4980146;28;20070;-63
2020/12/29 08:23:10;;;;;;;68.53;30.57;;;;;;;2.92;100.00;98377.75;4979258;28;20257;-64
2020/12/29 08:25:36;;;;;;;76.68;31.95;;;;;;;2.90;100.00;98396.50;4980655;28;20065;-63
2020/12/29 08:28:04;;;;;;;71.40;32.08;;;;;;;2.90;100.00;98390.34;4979122;28;20054;-64
2020/12/29 08:30:32;;;;;;;71.88;31.75;;;;;;;2.83;100.00;98386.59;4980740;28;20078;-63
2020/12/29 08:33:01;;;;;;;77.40;34.50;;;;;;;2.82;100.00;98393.75;4978021;28;20059;-63
2020/12/29 08:35:31;;;;;;;70.70;32.65;;;;;;;2.90;100.00;98408.94;4982234;28;20746;-63
2020/12/29 08:38:11;;;;;;;79.10;34.75;;;;;;;2.85;100.00;98404.06;4983819;28;20078;-64
2020/12/29 08:40:42;;;;;;;83.10;33.78;;;;;;;2.91;100.00;98408.78;4982691;28;20701;-64
2020/12/29 08:43:09;;;;;;;71.35;32.85;;;;;;;2.93;100.00;98409.50;4981617;28;20475;-64
2020/12/29 08:45:35;;;;;;;77.20;33.10;;;;;;;2.90;100.00;98414.25;4978777;28;20050;-63
2020/12/29 08:48:01;;;;;;;70.82;31.67;;;;;;;2.90;100.00;98417.75;4982514;28;20062;-64
2020/12/29 08:50:31;;;;;;;76.85;34.63;;;;;;;2.88;100.00;98416.22;4981420;28;20076;-64
2020/12/29 08:53:05;;;;;;;75.85;33.80;;;;;;;2.84;100.00;98428.94;4981900;28;20104;-63
2020/12/29 08:55:32;;;;;;;72.70;32.85;;;;;;;2.85;100.00;98430.63;4973478;28;20062;-64
2020/12/29 08:57:59;;;;;;;73.85;31.90;;;;;;;2.85;100.00;98432.47;4973597;28;20049;-64
2020/12/29 09:00:26;;;;;;;77.60;33.97;;;;;;;2.94;100.00;98436.88;4979451;28;20050;-64
2020/12/29 09:02:52;;;;;;;75.65;32.63;;;;;;;2.93;100.00;98440.53;4980132;28;20054;-63
2020/12/29 09:05:23;;;;;;;80.10;32.47;;;;;;;2.93;100.00;98437.88;4980498;28;20051;-63
2020/12/29 09:07:50;;;;;;;81.57;32.00;;;;;;;2.98;100.00;98448.91;4981697;28;20043;-64
2020/12/29 09:10:17;;;;;;;83.30;33.97;;;;;;;2.96;100.00;98458.84;4981684;28;20050;-63
2020/12/29 09:12:43;;;;;;;76.72;32.40;;;;;;;3.00;100.00;98456.72;4980460;28;20495;-64
2020/12/29 09:15:10;;;;;;;79.85;32.95;;;;;;;3.00;100.00;98462.88;4981212;28;20038;-64
2020/12/29 09:17:37;;;;;;;73.57;29.90;;;;;;;3.01;100.00;98474.34;4980206;28;20051;-63
2020/12/29 09:20:19;;;;;;;84.75;31.90;;;;;;;3.02;100.00;98473.34;4980335;28;20046;-64
2020/12/29 09:22:54;;;;;;;85.40;30.30;;;;;;;2.98;100.00;98472.81;4978669;28;20055;-63
2020/12/29 09:25:22;;;;;;;76.32;28.92;;;;;;;3.02;100.00;98482.19;4979297;28;20050;-64
2020/12/29 09:27:48;;;;;;;70.80;27.85;;;;;;;3.01;100.00;98483.16;4979840;28;20049;-64
2020/12/29 09:30:14;;;;;;;81.25;29.67;;;;;;;2.99;100.00;98493.09;4979129;28;20496;-65
2020/12/29 09:32:40;;;;;;;70.97;28.40;;;;;;;3.04;100.00;98496.13;4978550;28;20463;-64
2020/12/29 09:37:47;;;;;;;72.93;26.98;;;;;;;3.08;100.00;98505.50;4979476;28;20069;-64
2020/12/29 09:40:14;;;;;;;64.22;25.83;;;;;;;3.16;100.00;98520.72;4981318;28;20050;-65
2020/12/29 09:42:40;;;;;;;65.25;25.65;;;;;;;3.12;100.00;98517.53;4980929;28;20517;-65
2020/12/29 09:45:06;;;;;;;60.72;24.92;;;;;;;3.17;100.00;98519.75;4980847;28;20054;-63
2020/12/29 09:47:32;;;;;;;62.65;25.73;;;;;;;3.20;100.00;98523.94;4980912;28;20054;-64
2020/12/29 09:49:58;;;;;;;69.03;26.15;;;;;;;3.14;100.00;98531.50;4979829;28;20057;-64
2020/12/29 09:52:28;;;;;;;62.70;25.02;;;;;;;3.10;100.00;98537.25;4977561;28;20058;-64
2020/12/29 09:54:54;;;;;;;70.57;27.58;;;;;;;3.08;100.00;98537.41;4979753;28;20070;-68
2020/12/29 09:57:21;;;;;;;64.25;26.30;;;;;;;3.09;100.00;98544.41;4977844;28;20054;-65
2020/12/29 09:59:47;;;;;;;67.85;26.80;;;;;;;3.17;100.00;98546.31;4980362;28;20050;-64
2020/12/29 10:02:13;;;;;;;66.22;25.02;;;;;;;3.18;100.00;98547.16;4975086;28;20415;-66
2020/12/29 10:04:39;;;;;;;67.30;25.35;;;;;;;3.26;100.00;98555.25;4978309;28;20050;-65
2020/12/29 10:07:04;;;;;;;59.67;24.40;;;;;;;3.27;100.00;98563.06;4976827;28;20059;-66
2020/12/29 10:09:30;;;;;;;60.95;24.00;;;;;;;3.29;100.00;98563.75;4979913;28;20054;-66
2020/12/29 10:11:56;;;;;;;51.90;23.20;;;;;;;3.34;100.00;98557.97;4979950;28;20050;-65
2020/12/29 10:14:23;;;;;;;62.58;23.25;;;;;;;3.35;100.00;98564.97;4979298;28;20108;-65
2020/12/29 10:16:49;;;;;;;59.92;23.40;;;;;;;3.46;100.00;98575.44;4979854;28;20080;-64
2020/12/29 10:19:15;;;;;;;54.60;23.65;;;;;;;3.54;100.00;98573.88;4979249;28;20054;-64
2020/12/29 10:21:43;;;;;;;48.05;20.80;;;;;;;3.51;100.00;98575.00;4979527;28;20057;-64
2020/12/29 10:24:10;;;;;;;54.78;23.10;;;;;;;3.56;100.00;98572.72;4979604;28;20058;-67
2020/12/29 10:26:36;;;;;;;49.55;20.65;;;;;;;3.59;100.00;98576.91;4977835;28;20080;-67
2020/12/29 10:29:02;;;;;;;51.70;22.10;;;;;;;3.65;100.00;98586.94;4978820;28;20368;-65
2020/12/29 10:34:02;;;;;;;50.13;20.85;;;;;;;3.67;100.00;98591.16;4987242;23;20047;-66
2020/12/29 10:36:32;;;;;;;52.53;22.23;;;;;;;3.58;100.00;98594.72;4978860;28;20492;-66
2020/12/29 10:38:58;;;;;;;51.30;21.65;;;;;;;3.58;100.00;98601.81;4978428;28;20109;-64
2020/12/29 10:41:28;;;;;;;40.92;19.38;;;;;;;3.55;100.00;98610.97;4978483;28;20504;-64
2020/12/29 10:43:54;;;;;;;42.50;19.38;;;;;;;3.55;100.00;98615.41;4978059;28;20046;-64
2020/12/29 10:46:20;;;;;;;43.25;19.88;;;;;;;3.50;100.00;98608.75;4978220;28;20487;-65
2020/12/29 10:48:46;;;;;;;42.55;20.20;;;;;;;3.54;100.00;98609.28;4978748;28;20066;-65
2020/12/29 10:51:17;;;;;;;41.80;20.10;;;;;;;3.47;100.00;98611.66;4977093;28;20054;-65
2020/12/29 10:53:43;;;;;;;44.95;22.35;;;;;;;3.45;100.00;98613.66;4977925;28;20054;-66
2020/12/29 10:56:10;;;;;;;44.97;22.08;;;;;;;3.50;100.00;98611.41;4976163;28;20055;-64
2020/12/29 10:58:37;;;;;;;48.10;23.35;;;;;;;3.58;100.00;98620.44;4978692;28;20289;-65
2020/12/29 11:01:03;;;;;;;46.92;22.33;;;;;;;3.50;100.00;98619.38;4978094;28;20070;-66
2020/12/29 11:03:29;;;;;;;56.05;23.95;;;;;;;3.56;100.00;98628.56;4978499;28;20617;-64
2020/12/29 11:05:54;;;;;;;48.38;24.27;;;;;;;3.63;100.00;98631.50;4978419;28;20394;-66
2020/12/29 11:08:21;;;;;;;50.67;24.05;;;;;;;3.58;100.00;98623.97;4977587;28;20051;-66
2020/12/29 11:10:49;;;;;;;45.75;21.88;;;;;;;3.58;99.78;98631.09;4978336;28;20075;-63
2020/12/29 11:13:15;;;;;;;44.95;22.05;;;;;;;3.55;99.44;98628.72;4977444;28;20049;-63
2020/12/29 11:15:41;;;;;;;45.35;21.92;;;;;;;3.57;99.66;98632.09;4978244;28;20126;-63
2020/12/29 11:18:07;;;;;;;40.60;20.63;;;;;;;3.60;99.43;98642.44;4977630;28;20332;-64
2020/12/29 11:20:33;;;;;;;37.53;18.75;;;;;;;3.64;98.60;98643.81;4978405;28;20598;-67
2020/12/29 11:23:00;;;;;;;37.25;18.75;;;;;;;3.68;98.79;98646.03;4977690;28;20059;-65
2020/12/29 11:25:26;;;;;;;34.58;17.75;;;;;;;3.74;98.35;98641.09;4977504;28;20078;-65
2020/12/29 11:27:52;;;;;;;32.28;16.83;;;;;;;3.73;98.09;98642.09;4978137;28;20050;-65
2020/12/29 11:30:18;;;;;;;32.50;17.20;;;;;;;3.74;97.98;98644.63;4977291;28;20467;-65
2020/12/29 11:32:44;;;;;;;32.92;17.08;;;;;;;3.84;98.02;98650.72;4977861;28;20066;-64
2020/12/29 11:35:10;;;;;;;32.72;17.83;;;;;;;3.86;97.72;98651.41;4977080;28;20129;-66